Terminal Aerodrome Forecast
Issued by NWS Cleveland, OH

Home | Current Version | Previous Version | Graphics & Text | Print | Product List | Glossary Off
Versions: 1 2 3 4 5 6 7 8 9 10 11 12 13 14 15 16 17 18

253
FTUS41 KCLE 171735
TAFYNG
TAF
KYNG 171735Z 1718/1818 18005KT P6SM SCT025 BKN250
     FM180600 16010KT P6SM VCSH OVC090 WS020/21040KT
     FM181200 19012G20KT 4SM -SHRA BR BKN015 OVC025
     FM181400 19012G20KT 2SM -SHRA BR OVC007=

USA.gov is the U.S. government's official web portal to all federal, state and local government web resources and services.